createdAt,value
2024-05-09T00:02:19.725Z,17.67
2024-05-09T00:05:25.598Z,17.34
2024-05-09T00:08:31.400Z,17.60
2024-05-09T00:11:37.294Z,17.46
2024-05-09T00:14:42.932Z,17.27
2024-05-09T00:17:51.537Z,17.52
2024-05-09T00:20:57.475Z,17.63
2024-05-09T00:24:03.333Z,17.67
2024-05-09T00:27:11.289Z,17.56
2024-05-09T00:30:24.461Z,17.93
2024-05-09T00:33:40.295Z,17.98
2024-05-09T00:36:46.111Z,18.13
2024-05-09T00:39:51.790Z,18.10
2024-05-09T00:42:57.562Z,18.01
2024-05-09T00:46:03.394Z,17.37
2024-05-09T00:49:12.560Z,17.21
2024-05-09T00:52:18.490Z,17.35
2024-05-09T00:55:24.442Z,17.63
2024-05-09T00:58:32.727Z,17.87
2024-05-09T01:01:38.576Z,17.18
2024-05-09T01:04:47.092Z,17.27
2024-05-09T01:07:53.024Z,17.04
2024-05-09T01:10:58.820Z,16.96
2024-05-09T01:14:04.677Z,16.73
2024-05-09T01:17:10.389Z,17.00
2024-05-09T01:20:22.948Z,16.45
2024-05-09T01:23:36.393Z,16.69
2024-05-09T01:26:42.215Z,16.58
2024-05-09T01:29:47.991Z,16.85
2024-05-09T01:32:53.985Z,17.09
2024-05-09T01:35:59.918Z,17.26
2024-05-09T01:39:08.356Z,17.61
2024-05-09T01:42:14.003Z,17.35
2024-05-09T01:45:19.789Z,16.87
2024-05-09T01:48:25.497Z,17.32
2024-05-09T01:51:31.310Z,16.92
2024-05-09T01:54:39.883Z,16.82
2024-05-09T01:57:45.573Z,16.73
2024-05-09T02:00:52.184Z,16.95
2024-05-09T02:03:58.357Z,16.96
2024-05-09T02:07:04.256Z,16.69
2024-05-09T02:10:20.162Z,16.90
2024-05-09T02:13:29.236Z,16.87
2024-05-09T02:16:34.876Z,17.04
2024-05-09T02:19:40.495Z,17.20
2024-05-09T02:22:46.248Z,16.87
2024-05-09T02:25:54.680Z,17.03
2024-05-09T02:29:00.536Z,16.87
2024-05-09T02:32:06.292Z,16.54
2024-05-09T02:35:12.124Z,16.91
2024-05-09T02:38:17.881Z,17.08
2024-05-09T02:41:23.654Z,16.76
2024-05-09T02:44:29.286Z,17.12
2024-05-09T02:47:35.080Z,16.96
2024-05-09T02:50:39.961Z,16.89
2024-05-09T02:53:46.099Z,16.93
2024-05-09T02:56:54.598Z,16.73
2024-05-09T03:00:00.334Z,16.62
2024-05-09T03:03:06.468Z,16.65
2024-05-09T03:06:09.832Z,16.64
2024-05-09T03:09:15.499Z,16.48
2024-05-09T03:12:21.358Z,16.93
2024-05-09T03:15:27.102Z,16.78
2024-05-09T03:18:32.862Z,16.63
2024-05-09T03:21:39.340Z,16.57
2024-05-09T03:24:45.044Z,16.65
2024-05-09T03:27:50.751Z,16.61
2024-05-09T03:30:57.036Z,16.76
2024-05-09T03:34:02.951Z,16.62
2024-05-09T03:37:08.777Z,16.61
2024-05-09T03:40:23.355Z,16.50
2024-05-09T03:43:34.652Z,16.10
2024-05-09T03:46:41.377Z,16.08
2024-05-09T03:49:44.536Z,16.23
2024-05-09T03:52:50.267Z,16.36
2024-05-09T03:55:53.414Z,16.28
2024-05-09T03:59:01.776Z,16.44
2024-05-09T04:02:08.263Z,16.40
2024-05-09T04:05:11.447Z,16.30
2024-05-09T04:08:18.107Z,16.35
2024-05-09T04:11:23.857Z,16.31
2024-05-09T04:14:29.694Z,16.03
2024-05-09T04:17:35.666Z,16.18
2024-05-09T04:20:40.877Z,16.22
2024-05-09T04:23:47.128Z,16.37
2024-05-09T04:26:50.295Z,16.35
2024-05-09T04:29:58.737Z,15.95
2024-05-09T04:33:07.132Z,15.96
2024-05-09T04:36:11.559Z,15.91
2024-05-09T04:39:17.316Z,16.02
2024-05-09T04:42:23.036Z,16.09
2024-05-09T04:45:28.704Z,16.13
2024-05-09T04:48:34.747Z,16.48
2024-05-09T04:51:37.752Z,16.17
2024-05-09T04:54:43.347Z,16.43
2024-05-09T04:57:46.360Z,16.16
2024-05-09T05:00:54.772Z,16.05
2024-05-09T05:03:58.348Z,16.17
2024-05-09T05:07:04.207Z,15.84
2024-05-09T05:10:11.850Z,16.07
2024-05-09T05:13:21.673Z,16.34
2024-05-09T05:16:31.064Z,16.57
2024-05-09T05:19:34.247Z,16.88
2024-05-09T05:22:43.453Z,16.81
2024-05-09T05:25:48.179Z,16.60
2024-05-09T05:28:54.226Z,16.74
2024-05-09T05:32:00.076Z,16.77
2024-05-09T05:35:06.201Z,16.90
2024-05-09T05:38:09.935Z,16.72
2024-05-09T05:41:15.961Z,16.84
2024-05-09T05:44:19.021Z,16.81
2024-05-09T05:47:27.872Z,16.83
2024-05-09T05:50:35.909Z,16.66
2024-05-09T05:53:43.503Z,17.18
2024-05-09T05:56:46.634Z,16.95
2024-05-09T05:59:52.396Z,16.44
2024-05-09T06:02:58.326Z,16.32
2024-05-09T06:06:06.586Z,16.26
2024-05-09T06:09:09.584Z,16.21
2024-05-09T06:12:15.575Z,16.29
2024-05-09T06:15:21.396Z,16.22
2024-05-09T06:18:28.059Z,16.34
2024-05-09T06:21:33.950Z,16.40
2024-05-09T06:24:37.730Z,16.56
2024-05-09T06:27:43.564Z,16.62
2024-05-09T06:30:46.642Z,16.69
2024-05-09T06:33:55.228Z,16.75
2024-05-09T06:36:58.354Z,16.74
2024-05-09T06:40:05.542Z,16.62
2024-05-09T06:43:11.805Z,16.37
2024-05-09T06:46:17.516Z,16.60
2024-05-09T06:49:23.358Z,16.28
2024-05-09T06:52:29.083Z,16.47
2024-05-09T06:55:32.194Z,16.53
2024-05-09T06:58:37.716Z,16.69
2024-05-09T07:01:43.330Z,16.49
2024-05-09T07:04:49.297Z,16.52
2024-05-09T07:07:55.193Z,16.51
2024-05-09T07:10:58.400Z,16.57
2024-05-09T07:14:04.347Z,16.25
2024-05-09T07:17:07.528Z,16.80
2024-05-09T07:20:23.580Z,16.87
2024-05-09T07:23:35.168Z,16.76
2024-05-09T07:26:41.060Z,16.41
2024-05-09T07:29:46.837Z,16.52
2024-05-09T07:32:52.833Z,17.02
2024-05-09T07:36:01.232Z,17.09
2024-05-09T07:39:06.016Z,16.98
2024-05-09T07:42:11.778Z,16.70
2024-05-09T07:45:30.093Z,16.91
2024-05-09T07:53:20.919Z,17.00
2024-05-09T07:55:15.223Z,17.02
2024-05-09T07:58:20.984Z,17.16
2024-05-09T08:01:27.793Z,16.79
2024-05-09T08:04:31.047Z,16.71
2024-05-09T08:07:39.764Z,16.73
2024-05-09T08:10:42.964Z,16.74
2024-05-09T08:13:48.693Z,16.68
2024-05-09T08:16:51.763Z,16.76
2024-05-09T08:19:58.564Z,16.69
2024-05-09T08:23:04.392Z,16.46
2024-05-09T08:26:10.016Z,16.79
2024-05-09T08:29:13.334Z,16.99
2024-05-09T08:32:19.154Z,16.85
2024-05-09T08:35:25.417Z,16.77
2024-05-09T08:38:31.124Z,16.89
2024-05-09T08:41:40.280Z,16.28
2024-05-09T08:44:44.711Z,16.77
2024-05-09T08:47:53.643Z,16.82
2024-05-09T08:50:59.672Z,17.12
2024-05-09T08:54:08.236Z,16.67
2024-05-09T08:57:13.813Z,17.07
2024-05-09T09:00:29.186Z,16.79
2024-05-09T09:03:38.001Z,16.65
2024-05-09T09:06:43.830Z,16.83
2024-05-09T09:09:51.075Z,17.04
2024-05-09T09:13:00.448Z,17.21
2024-05-09T09:16:04.124Z,17.29
2024-05-09T09:19:10.204Z,17.41
2024-05-09T09:22:14.387Z,17.65
2024-05-09T09:25:24.417Z,17.55
2024-05-09T09:28:27.466Z,17.74
2024-05-09T09:31:33.930Z,17.60
2024-05-09T09:34:37.041Z,17.13
2024-05-09T09:37:42.705Z,17.08
2024-05-09T09:40:49.944Z,17.24
2024-05-09T09:43:57.858Z,17.29
2024-05-09T09:47:04.690Z,17.75
2024-05-09T09:50:14.497Z,17.67
2024-05-09T09:53:20.485Z,17.82
2024-05-09T09:56:31.451Z,17.70
2024-05-09T09:59:38.782Z,17.26
2024-05-09T10:02:41.993Z,17.46
2024-05-09T10:05:48.161Z,17.22
2024-05-09T10:08:52.149Z,17.48
2024-05-09T10:12:00.895Z,17.41
2024-05-09T10:15:08.241Z,17.60
2024-05-09T10:18:14.354Z,17.51
2024-05-09T10:21:18.143Z,17.71
2024-05-09T10:24:23.835Z,17.64
2024-05-09T10:27:30.725Z,17.72
2024-05-09T10:30:36.908Z,17.43
2024-05-09T10:33:45.676Z,17.39
2024-05-09T10:36:56.061Z,17.49
2024-05-09T10:39:59.725Z,17.88
2024-05-09T10:43:09.104Z,18.10
2024-05-09T10:46:12.924Z,17.89
2024-05-09T10:49:19.049Z,17.60
2024-05-09T10:52:25.454Z,17.78
2024-05-09T10:55:28.653Z,17.62
2024-05-09T10:58:37.140Z,17.58
2024-05-09T11:01:43.646Z,17.99
2024-05-09T11:04:47.029Z,18.18
2024-05-09T11:07:53.002Z,18.15
2024-05-09T11:10:57.307Z,18.47
2024-05-09T11:14:15.115Z,18.84
2024-05-09T11:17:21.168Z,19.02
2024-05-09T11:20:35.464Z,19.02
2024-05-09T11:23:41.956Z,19.35
2024-05-09T11:26:45.098Z,19.33
2024-05-09T11:29:53.532Z,19.28
2024-05-09T11:32:56.617Z,18.68
2024-05-09T11:36:02.477Z,18.24
2024-05-09T11:39:08.491Z,18.87
2024-05-09T11:42:14.585Z,18.99
2024-05-09T11:45:20.215Z,19.34
2024-05-09T11:48:26.611Z,19.47
2024-05-09T11:51:29.889Z,18.89
2024-05-09T11:54:35.723Z,19.01
2024-05-09T11:57:39.299Z,19.17
2024-05-09T12:00:47.982Z,19.44
2024-05-09T12:03:51.938Z,19.26
2024-05-09T12:06:58.035Z,19.21
2024-05-09T12:10:01.290Z,19.27
2024-05-09T12:13:07.888Z,19.52
2024-05-09T12:16:13.846Z,19.48
2024-05-09T12:19:19.994Z,19.04
2024-05-09T12:22:23.195Z,18.74
2024-05-09T12:25:29.113Z,19.10
2024-05-09T12:28:32.223Z,18.93
2024-05-09T12:31:40.590Z,18.99
2024-05-09T12:34:43.822Z,18.82
2024-05-09T12:37:49.944Z,19.07
2024-05-09T12:40:53.176Z,19.09
2024-05-09T12:43:58.898Z,19.15
2024-05-09T12:47:07.558Z,18.86
2024-05-09T12:50:21.773Z,18.45
2024-05-09T12:53:31.212Z,18.44
2024-05-09T12:56:34.186Z,18.59
2024-05-09T12:59:39.859Z,18.30
2024-05-09T13:02:51.155Z,18.26
2024-05-09T13:05:54.716Z,18.45
2024-05-09T13:09:00.757Z,18.58
2024-05-09T13:12:07.980Z,18.15
2024-05-09T13:15:13.727Z,18.33
2024-05-09T13:18:19.533Z,18.23
2024-05-09T13:21:25.431Z,18.32
2024-05-09T13:24:28.414Z,17.95
2024-05-09T13:27:34.240Z,17.68
2024-05-09T13:30:40.906Z,18.20
2024-05-09T13:33:50.663Z,18.04
2024-05-09T13:36:54.030Z,17.96
2024-05-09T13:40:00.006Z,18.09
2024-05-09T13:43:03.317Z,18.20
2024-05-09T13:46:09.286Z,18.02
2024-05-09T13:49:17.427Z,17.94
2024-05-09T13:52:23.702Z,17.96
2024-05-09T13:55:26.753Z,17.86
2024-05-09T13:58:32.562Z,17.94
2024-05-09T14:01:35.652Z,18.03
2024-05-09T14:04:44.267Z,17.86
2024-05-09T14:07:47.429Z,18.08
2024-05-09T14:10:54.130Z,17.99
2024-05-09T14:13:57.360Z,18.21
2024-05-09T14:17:03.566Z,18.07
2024-05-09T14:20:16.649Z,18.15
2024-05-09T14:23:29.292Z,17.93
2024-05-09T14:26:32.449Z,18.12
2024-05-09T14:29:38.575Z,18.08
2024-05-09T14:32:44.319Z,18.46
2024-05-09T14:35:52.886Z,18.52
2024-05-09T14:38:58.578Z,18.33
2024-05-09T14:42:01.535Z,18.42
2024-05-09T14:45:07.734Z,18.32
2024-05-09T14:48:11.572Z,18.17
2024-05-09T14:51:20.963Z,18.17
2024-05-09T14:54:23.920Z,18.23
2024-05-09T14:57:30.574Z,18.02
2024-05-09T15:00:36.238Z,17.75
2024-05-09T15:03:43.046Z,17.66
2024-05-09T15:06:51.784Z,17.73
2024-05-09T15:09:54.899Z,18.11
2024-05-09T15:13:00.778Z,18.37
2024-05-09T15:16:06.782Z,18.56
2024-05-09T15:19:10.349Z,18.35
2024-05-09T15:22:19.409Z,18.33
2024-05-09T15:25:22.489Z,17.94
2024-05-09T15:28:28.328Z,17.84
2024-05-09T15:31:31.494Z,17.93
2024-05-09T15:34:37.265Z,18.16
2024-05-09T15:37:43.190Z,17.60
2024-05-09T15:40:49.043Z,17.84
2024-05-09T15:43:54.803Z,18.02
2024-05-09T15:46:57.857Z,17.58
2024-05-09T15:50:05.200Z,17.74
2024-05-09T15:53:14.115Z,16.94
2024-05-09T15:56:20.256Z,17.24
2024-05-09T15:59:23.271Z,17.17
2024-05-09T16:02:29.238Z,17.27
2024-05-09T16:05:32.583Z,17.25
2024-05-09T16:08:41.330Z,17.55
2024-05-09T16:11:44.495Z,17.36
2024-05-09T16:14:51.070Z,17.45
2024-05-09T16:17:54.973Z,17.40
2024-05-09T16:21:02.047Z,17.54
2024-05-09T16:24:10.734Z,17.37
2024-05-09T16:27:13.739Z,17.36
2024-05-09T16:30:27.827Z,17.45
2024-05-09T16:33:40.875Z,17.16
2024-05-09T16:36:46.916Z,17.47
2024-05-09T16:39:55.475Z,17.47
2024-05-09T16:42:58.977Z,17.49
2024-05-09T16:46:05.841Z,16.96
2024-05-09T16:49:09.489Z,17.27
2024-05-09T16:52:15.412Z,17.40
2024-05-09T16:55:21.565Z,17.38
2024-05-09T16:58:27.846Z,17.05
2024-05-09T17:01:33.901Z,17.26
2024-05-09T17:04:39.758Z,17.06
2024-05-09T17:07:47.825Z,16.89
2024-05-09T17:10:56.405Z,16.58
2024-05-09T17:14:02.078Z,16.55
2024-05-09T17:17:09.293Z,16.63
2024-05-09T17:20:25.620Z,16.46
2024-05-09T17:23:35.220Z,16.91
2024-05-09T17:26:43.573Z,17.13
2024-05-09T17:29:46.707Z,16.41
2024-05-09T17:32:53.903Z,16.64
2024-05-09T17:35:59.704Z,17.03
2024-05-09T17:39:05.839Z,17.17
2024-05-09T17:42:11.583Z,17.34
2024-05-09T17:45:17.305Z,17.20
2024-05-09T17:48:20.631Z,17.12
2024-05-09T17:51:26.610Z,17.01
2024-05-09T17:54:29.745Z,17.02
2024-05-09T17:57:38.203Z,17.07
2024-05-09T18:00:46.462Z,16.55
2024-05-09T18:03:50.369Z,16.21
2024-05-09T18:06:57.121Z,16.50
2024-05-09T18:10:00.701Z,16.37
2024-05-09T18:13:09.991Z,16.49
2024-05-09T18:16:13.474Z,16.60
2024-05-09T18:19:19.694Z,16.79
2024-05-09T18:22:26.186Z,16.60
2024-05-09T18:25:29.302Z,16.26
2024-05-09T18:28:37.755Z,16.13
2024-05-09T18:31:40.772Z,16.24
2024-05-09T18:34:46.468Z,15.86
2024-05-09T18:37:49.670Z,15.94
2024-05-09T18:40:55.535Z,16.15
2024-05-09T18:44:04.228Z,16.27
2024-05-09T18:47:07.253Z,15.95
2024-05-09T18:50:20.440Z,15.99
2024-05-09T18:53:33.836Z,15.89
2024-05-09T18:56:37.968Z,16.10
2024-05-09T18:59:46.374Z,15.82
2024-05-09T19:02:52.461Z,15.94
2024-05-09T19:05:58.475Z,16.04
2024-05-09T19:09:01.592Z,16.03
2024-05-09T19:12:08.195Z,15.96
2024-05-09T19:15:17.060Z,15.88
2024-05-09T19:18:20.362Z,15.67
2024-05-09T19:21:26.214Z,15.43
2024-05-09T19:24:31.843Z,15.61
2024-05-09T19:27:37.574Z,15.36
2024-05-09T19:30:46.197Z,15.52
2024-05-09T19:33:52.176Z,15.51
2024-05-09T19:37:00.450Z,15.45
2024-05-09T19:40:12.464Z,15.48
2024-05-09T19:43:23.999Z,15.77
2024-05-09T19:46:30.272Z,15.85
2024-05-09T19:49:35.960Z,15.67
2024-05-09T19:52:39.140Z,15.50
2024-05-09T19:55:45.494Z,15.36
2024-05-09T19:58:48.506Z,15.46
2024-05-09T20:01:56.994Z,15.62
2024-05-09T20:05:01.492Z,15.44
2024-05-09T20:08:07.554Z,15.41
2024-05-09T20:11:11.004Z,15.63
2024-05-09T20:14:16.726Z,15.50
2024-05-09T20:17:22.485Z,15.48
2024-05-09T20:20:36.118Z,15.31
2024-05-09T20:23:43.039Z,15.62
2024-05-09T20:26:48.672Z,15.38
2024-05-09T20:29:54.418Z,15.20
2024-05-09T20:33:00.956Z,15.27
2024-05-09T20:36:08.745Z,15.37
2024-05-09T20:39:14.392Z,15.49
2024-05-09T20:42:17.949Z,15.31
2024-05-09T20:45:23.714Z,15.04
2024-05-09T20:48:29.574Z,15.31
2024-05-09T20:51:35.437Z,15.42
2024-05-09T20:54:38.464Z,15.22
2024-05-09T20:57:44.149Z,15.31
2024-05-09T21:00:50.093Z,15.23
2024-05-09T21:03:55.913Z,15.00
2024-05-09T21:07:01.720Z,15.04
2024-05-09T21:10:12.740Z,14.95
2024-05-09T21:13:22.128Z,14.61
2024-05-09T21:16:25.380Z,14.83
2024-05-09T21:19:33.838Z,14.82
2024-05-09T21:22:39.457Z,14.75
2024-05-09T21:25:45.138Z,14.62
2024-05-09T21:28:48.091Z,14.81
2024-05-09T21:31:53.856Z,14.76
2024-05-09T21:34:59.493Z,14.65
2024-05-09T21:38:05.256Z,14.65
2024-05-09T21:41:08.680Z,14.77
2024-05-09T21:44:14.380Z,14.72
2024-05-09T21:47:17.325Z,14.43
2024-05-09T21:50:32.408Z,14.70
2024-05-09T21:53:44.681Z,14.47
2024-05-09T21:56:47.696Z,14.44
2024-05-09T21:59:53.291Z,14.46
2024-05-09T22:02:56.518Z,14.51
2024-05-09T22:06:04.933Z,14.49
2024-05-09T22:09:08.038Z,14.45
2024-05-09T22:12:13.822Z,14.53
2024-05-09T22:15:16.896Z,14.44
2024-05-09T22:18:22.660Z,14.35
2024-05-09T22:21:28.468Z,14.46
2024-05-09T22:24:34.131Z,14.74
2024-05-09T22:27:37.733Z,14.58
2024-05-09T22:30:46.520Z,14.72
2024-05-09T22:33:53.275Z,14.35
2024-05-09T22:36:59.166Z,14.37
2024-05-09T22:40:06.842Z,14.33
2024-05-09T22:43:10.046Z,14.45
2024-05-09T22:46:15.985Z,14.40
2024-05-09T22:49:19.083Z,14.59
2024-05-09T22:52:27.634Z,14.40
2024-05-09T22:55:30.765Z,14.51
2024-05-09T22:58:36.528Z,14.46
2024-05-09T23:01:39.637Z,14.45
2024-05-09T23:04:45.439Z,14.38
2024-05-09T23:07:51.096Z,14.54
2024-05-09T23:10:56.949Z,14.63
2024-05-09T23:14:00.299Z,14.56
2024-05-09T23:17:06.754Z,14.59
2024-05-09T23:20:11.731Z,14.51
2024-05-09T23:23:22.956Z,14.42
2024-05-09T23:26:28.597Z,14.29
2024-05-09T23:29:31.767Z,14.62
2024-05-09T23:32:37.440Z,14.37
2024-05-09T23:35:41.706Z,14.50
2024-05-09T23:38:50.338Z,14.46
2024-05-09T23:41:53.341Z,14.48
2024-05-09T23:44:59.009Z,14.82
2024-05-09T23:48:02.312Z,14.66
2024-05-09T23:51:08.664Z,14.54
2024-05-09T23:54:17.079Z,14.21
2024-05-09T23:57:20.039Z,14.50
